sensor_id;sensor_type;location;lat;lon;timestamp;pressure;altitude;pressure_sealevel;temperature;humidity
61337;BME280;47212;41.326;2.104;2023-05-19T00:00:25;101629.47;;;17.87;63.21
61337;BME280;47212;41.326;2.104;2023-05-19T00:05:27;101622.31;;;17.86;63.25
61337;BME280;47212;41.326;2.104;2023-05-19T00:10:31;101612.47;;;17.79;63.15
61337;BME280;47212;41.326;2.104;2023-05-19T00:15:34;101618.25;;;17.78;63.40
61337;BME280;47212;41.326;2.104;2023-05-19T00:20:37;101614.44;;;17.74;63.26
61337;BME280;47212;41.326;2.104;2023-05-19T00:25:39;101611.16;;;17.72;63.16
61337;BME280;47212;41.326;2.104;2023-05-19T00:30:41;101596.03;;;17.69;63.53
61337;BME280;47212;41.326;2.104;2023-05-19T00:35:44;101592.75;;;17.67;63.36
61337;BME280;47212;41.326;2.104;2023-05-19T00:40:46;101594.94;;;17.65;63.20
61337;BME280;47212;41.326;2.104;2023-05-19T00:45:48;101593.88;;;17.61;63.39
61337;BME280;47212;41.326;2.104;2023-05-19T00:50:52;101590.59;;;17.59;63.16
61337;BME280;47212;41.326;2.104;2023-05-19T00:55:56;101589.53;;;17.55;63.55
61337;BME280;47212;41.326;2.104;2023-05-19T01:00:59;101584.88;;;17.50;63.57
61337;BME280;47212;41.326;2.104;2023-05-19T01:06:07;101578.31;;;17.46;63.83
61337;BME280;47212;41.326;2.104;2023-05-19T01:11:09;101577.47;;;17.46;63.96
61337;BME280;47212;41.326;2.104;2023-05-19T01:35:24;101554.59;;;17.50;64.13
61337;BME280;47212;41.326;2.104;2023-05-19T01:40:28;101545.53;;;17.50;64.29
61337;BME280;47212;41.326;2.104;2023-05-19T01:45:32;101540.59;;;17.47;64.42
61337;BME280;47212;41.326;2.104;2023-05-19T01:50:34;101535.09;;;17.47;64.26
61337;BME280;47212;41.326;2.104;2023-05-19T01:55:49;101530.69;;;17.46;64.44
61337;BME280;47212;41.326;2.104;2023-05-19T02:01:10;101523.56;;;17.45;64.22
61337;BME280;47212;41.326;2.104;2023-05-19T02:12:05;101526.31;;;17.45;64.62
61337;BME280;47212;41.326;2.104;2023-05-19T02:19:43;101520.25;;;17.43;64.10
61337;BME280;47212;41.326;2.104;2023-05-19T02:24:46;101520.84;;;17.40;64.48
61337;BME280;47212;41.326;2.104;2023-05-19T02:29:48;101515.91;;;17.37;64.97
61337;BME280;47212;41.326;2.104;2023-05-19T02:34:51;101514.81;;;17.33;65.22
61337;BME280;47212;41.326;2.104;2023-05-19T02:39:54;101512.41;;;17.26;65.28
61337;BME280;47212;41.326;2.104;2023-05-19T02:44:56;101507.53;;;17.18;65.93
61337;BME280;47212;41.326;2.104;2023-05-19T02:49:58;101505.09;;;17.11;65.83
61337;BME280;47212;41.326;2.104;2023-05-19T02:55:02;101517.78;;;17.07;66.08
61337;BME280;47212;41.326;2.104;2023-05-19T03:02:13;101506.28;;;17.00;65.76
61337;BME280;47212;41.326;2.104;2023-05-19T03:07:15;101516.75;;;16.98;66.00
61337;BME280;47212;41.326;2.104;2023-05-19T03:12:18;101508.25;;;16.95;65.87
61337;BME280;47212;41.326;2.104;2023-05-19T03:17:20;101493.44;;;16.91;65.90
61337;BME280;47212;41.326;2.104;2023-05-19T03:22:22;101499.22;;;16.89;65.82
61337;BME280;47212;41.326;2.104;2023-05-19T03:27:26;101503.66;;;16.85;65.53
61337;BME280;47212;41.326;2.104;2023-05-19T03:32:30;101494.34;;;16.81;65.60
61337;BME280;47212;41.326;2.104;2023-05-19T03:37:33;101486.66;;;16.78;65.17
61337;BME280;47212;41.326;2.104;2023-05-19T03:42:36;101483.38;;;16.76;64.53
61337;BME280;47212;41.326;2.104;2023-05-19T03:47:39;101477.06;;;16.75;64.18
61337;BME280;47212;41.326;2.104;2023-05-19T03:53:17;101461.94;;;16.73;63.96
61337;BME280;47212;41.326;2.104;2023-05-19T03:58:19;101473.53;;;16.70;64.05
61337;BME280;47212;41.326;2.104;2023-05-19T04:08:57;101467.50;;;16.63;63.64
61337;BME280;47212;41.326;2.104;2023-05-19T04:14:01;101468.34;;;16.58;63.87
61337;BME280;47212;41.326;2.104;2023-05-19T04:19:03;101471.13;;;16.53;64.97
61337;BME280;47212;41.326;2.104;2023-05-19T04:27:56;101456.31;;;16.49;64.30
61337;BME280;47212;41.326;2.104;2023-05-19T04:32:59;101464.00;;;16.47;64.55
61337;BME280;47212;41.326;2.104;2023-05-19T04:38:02;101456.31;;;16.44;64.78
61337;BME280;47212;41.326;2.104;2023-05-19T04:43:07;101459.34;;;16.42;64.70
61337;BME280;47212;41.326;2.104;2023-05-19T04:48:10;101466.50;;;16.38;64.46
61337;BME280;47212;41.326;2.104;2023-05-19T04:53:14;101466.25;;;16.35;64.73
61337;BME280;47212;41.326;2.104;2023-05-19T04:58:16;101472.03;;;16.33;64.63
61337;BME280;47212;41.326;2.104;2023-05-19T05:03:21;101470.41;;;16.32;64.46
61337;BME280;47212;41.326;2.104;2023-05-19T05:08:24;101477.00;;;16.31;64.76
61337;BME280;47212;41.326;2.104;2023-05-19T05:13:28;101474.81;;;16.28;65.29
61337;BME280;47212;41.326;2.104;2023-05-19T05:18:32;101470.41;;;16.27;65.41
61337;BME280;47212;41.326;2.104;2023-05-19T05:23:35;101469.59;;;16.27;65.27
61337;BME280;47212;41.326;2.104;2023-05-19T05:28:40;101464.94;;;16.27;65.34
61337;BME280;47212;41.326;2.104;2023-05-19T05:33:43;101463.00;;;16.28;64.92
61337;BME280;47212;41.326;2.104;2023-05-19T05:38:46;101462.16;;;16.32;64.93
61337;BME280;47212;41.326;2.104;2023-05-19T05:43:49;101464.88;;;16.37;64.95
61337;BME280;47212;41.326;2.104;2023-05-19T05:48:52;101465.38;;;16.44;64.21
61337;BME280;47212;41.326;2.104;2023-05-19T05:53:55;101465.91;;;16.51;64.42
61337;BME280;47212;41.326;2.104;2023-05-19T05:59:05;101462.28;;;16.61;64.02
61337;BME280;47212;41.326;2.104;2023-05-19T06:04:08;101452.88;;;16.72;63.04
61337;BME280;47212;41.326;2.104;2023-05-19T06:09:11;101446.19;;;16.83;62.64
61337;BME280;47212;41.326;2.104;2023-05-19T06:14:13;101454.06;;;16.95;62.63
61337;BME280;47212;41.326;2.104;2023-05-19T06:19:35;101444.38;;;17.03;62.23
61337;BME280;47212;41.326;2.104;2023-05-19T06:24:37;101450.38;;;17.10;61.93
61337;BME280;47212;41.326;2.104;2023-05-19T06:29:42;101443.13;;;17.19;61.45
61337;BME280;47212;41.326;2.104;2023-05-19T06:34:46;101447.19;;;17.27;60.96
61337;BME280;47212;41.326;2.104;2023-05-19T06:39:55;101449.06;;;17.36;60.56
61337;BME280;47212;41.326;2.104;2023-05-19T06:44:58;101447.53;;;17.49;60.13
61337;BME280;47212;41.326;2.104;2023-05-19T06:50:01;101450.72;;;17.61;59.63
61337;BME280;47212;41.326;2.104;2023-05-19T06:55:11;101450.03;;;17.74;59.66
61337;BME280;47212;41.326;2.104;2023-05-19T07:00:14;101452.91;;;17.88;59.44
61337;BME280;47212;41.326;2.104;2023-05-19T07:05:32;101449.22;;;17.98;58.67
61337;BME280;47212;41.326;2.104;2023-05-19T07:10:35;101442.22;;;18.05;58.21
61337;BME280;47212;41.326;2.104;2023-05-19T07:15:44;101429.50;;;18.09;57.86
61337;BME280;47212;41.326;2.104;2023-05-19T07:20:46;101435.22;;;18.13;58.09
61337;BME280;47212;41.326;2.104;2023-05-19T07:25:55;101424.66;;;18.20;57.57
61337;BME280;47212;41.326;2.104;2023-05-19T07:30:57;101433.19;;;18.42;57.45
61337;BME280;47212;41.326;2.104;2023-05-19T07:36:00;101424.25;;;18.69;56.47
61337;BME280;47212;41.326;2.104;2023-05-19T07:41:02;101426.28;;;18.96;55.17
61337;BME280;47212;41.326;2.104;2023-05-19T07:46:05;101433.25;;;19.26;54.11
61337;BME280;47212;41.326;2.104;2023-05-19T07:51:07;101432.50;;;19.53;53.29
61337;BME280;47212;41.326;2.104;2023-05-19T07:56:10;101428.59;;;19.82;52.84
61337;BME280;47212;41.326;2.104;2023-05-19T08:01:13;101418.88;;;20.12;51.95
61337;BME280;47212;41.326;2.104;2023-05-19T08:06:15;101422.94;;;20.28;51.43
61337;BME280;47212;41.326;2.104;2023-05-19T08:11:17;101426.09;;;20.35;51.17
61337;BME280;47212;41.326;2.104;2023-05-19T08:16:19;101424.13;;;20.49;49.76
61337;BME280;47212;41.326;2.104;2023-05-19T08:21:21;101428.28;;;20.60;49.04
61337;BME280;47212;41.326;2.104;2023-05-19T08:26:24;101428.34;;;20.69;48.71
61337;BME280;47212;41.326;2.104;2023-05-19T08:31:27;101422.25;;;21.03;47.29
61337;BME280;47212;41.326;2.104;2023-05-19T08:36:30;101424.13;;;21.39;46.33
61337;BME280;47212;41.326;2.104;2023-05-19T08:41:32;101414.78;;;21.66;45.06
61337;BME280;47212;41.326;2.104;2023-05-19T08:46:34;101422.53;;;21.86;44.59
61337;BME280;47212;41.326;2.104;2023-05-19T08:56:49;101419.03;;;22.11;44.84
61337;BME280;47212;41.326;2.104;2023-05-19T09:01:52;101421.72;;;21.94;46.24
61337;BME280;47212;41.326;2.104;2023-05-19T09:06:55;101420.41;;;21.91;48.51
61337;BME280;47212;41.326;2.104;2023-05-19T09:11:59;101416.72;;;21.65;48.69
61337;BME280;47212;41.326;2.104;2023-05-19T09:17:02;101415.78;;;21.30;49.44
61337;BME280;47212;41.326;2.104;2023-05-19T09:22:53;101416.47;;;21.44;50.04
61337;BME280;47212;41.326;2.104;2023-05-19T09:27:55;101411.03;;;21.30;50.89
61337;BME280;47212;41.326;2.104;2023-05-19T09:32:57;101421.91;;;21.58;51.11
61337;BME280;47212;41.326;2.104;2023-05-19T09:37:59;101433.44;;;21.20;51.87
61337;BME280;47212;41.326;2.104;2023-05-19T09:43:04;101427.75;;;20.94;53.11
61337;BME280;47212;41.326;2.104;2023-05-19T09:48:27;101443.06;;;20.78;53.29
61337;BME280;47212;41.326;2.104;2023-05-19T09:53:48;101438.19;;;20.97;52.26
61337;BME280;47212;41.326;2.104;2023-05-19T09:59:12;101436.19;;;20.89;52.76
61337;BME280;47212;41.326;2.104;2023-05-19T10:04:17;101438.59;;;21.13;52.38
61337;BME280;47212;41.326;2.104;2023-05-19T10:09:22;101428.41;;;21.53;51.29
61337;BME280;47212;41.326;2.104;2023-05-19T10:14:27;101439.13;;;21.46;51.51
61337;BME280;47212;41.326;2.104;2023-05-19T10:19:30;101438.25;;;20.84;52.04
61337;BME280;47212;41.326;2.104;2023-05-19T10:24:32;101434.75;;;20.56;52.64
61337;BME280;47212;41.326;2.104;2023-05-19T10:29:37;101436.75;;;20.42;52.79
61337;BME280;47212;41.326;2.104;2023-05-19T10:40:10;101426.97;;;21.03;51.29
61337;BME280;47212;41.326;2.104;2023-05-19T10:45:22;101423.75;;;21.09;51.23
61337;BME280;47212;41.326;2.104;2023-05-19T10:50:25;101427.53;;;21.13;51.61
61337;BME280;47212;41.326;2.104;2023-05-19T10:55:49;101429.00;;;20.88;51.79
61337;BME280;47212;41.326;2.104;2023-05-19T11:00:59;101434.75;;;20.56;53.77
61337;BME280;47212;41.326;2.104;2023-05-19T11:06:28;101442.31;;;20.64;54.86
61337;BME280;47212;41.326;2.104;2023-05-19T11:11:48;101438.25;;;20.48;55.01
61337;BME280;47212;41.326;2.104;2023-05-19T11:16:52;101434.06;;;20.50;54.59
61337;BME280;47212;41.326;2.104;2023-05-19T11:22:11;101437.44;;;20.33;53.83
61337;BME280;47212;41.326;2.104;2023-05-19T11:27:32;101428.97;;;20.66;54.18
61337;BME280;47212;41.326;2.104;2023-05-19T11:32:35;101434.50;;;20.44;54.74
61337;BME280;47212;41.326;2.104;2023-05-19T11:37:41;101420.69;;;20.16;55.63
61337;BME280;47212;41.326;2.104;2023-05-19T11:42:43;101417.75;;;19.99;55.65
61337;BME280;47212;41.326;2.104;2023-05-19T11:47:46;101435.38;;;20.03;55.37
61337;BME280;47212;41.326;2.104;2023-05-19T11:53:02;101433.59;;;20.21;55.02
61337;BME280;47212;41.326;2.104;2023-05-19T11:58:05;101428.47;;;20.28;53.88
61337;BME280;47212;41.326;2.104;2023-05-19T12:03:08;101433.31;;;20.09;53.09
61337;BME280;47212;41.326;2.104;2023-05-19T12:08:11;101433.41;;;19.90;52.38
61337;BME280;47212;41.326;2.104;2023-05-19T12:13:13;101419.91;;;19.75;53.84
61337;BME280;47212;41.326;2.104;2023-05-19T12:22:54;101433.09;;;20.05;52.24
61337;BME280;47212;41.326;2.104;2023-05-19T12:27:58;101434.00;;;20.28;51.62
61337;BME280;47212;41.326;2.104;2023-05-19T12:33:01;101424.13;;;20.35;51.02
61337;BME280;47212;41.326;2.104;2023-05-19T12:38:05;101414.31;;;20.43;51.47
61337;BME280;47212;41.326;2.104;2023-05-19T12:43:17;101406.00;;;20.43;52.23
61337;BME280;47212;41.326;2.104;2023-05-19T12:48:23;101398.75;;;20.33;52.69
61337;BME280;47212;41.326;2.104;2023-05-19T12:53:25;101382.91;;;20.25;53.02
61337;BME280;47212;41.326;2.104;2023-05-19T12:58:32;101375.03;;;20.19;51.47
61337;BME280;47212;41.326;2.104;2023-05-19T13:03:41;101383.88;;;20.07;49.54
61337;BME280;47212;41.326;2.104;2023-05-19T13:08:45;101385.22;;;19.96;51.02
61337;BME280;47212;41.326;2.104;2023-05-19T13:13:48;101384.19;;;19.92;51.19
61337;BME280;47212;41.326;2.104;2023-05-19T13:18:57;101377.75;;;19.96;51.66
61337;BME280;47212;41.326;2.104;2023-05-19T13:24:00;101368.53;;;20.01;51.48
61337;BME280;47212;41.326;2.104;2023-05-19T13:29:04;101362.38;;;20.04;51.90
61337;BME280;47212;41.326;2.104;2023-05-19T13:34:06;101354.38;;;20.16;50.56
61337;BME280;47212;41.326;2.104;2023-05-19T13:39:09;101349.41;;;20.27;50.12
61337;BME280;47212;41.326;2.104;2023-05-19T13:44:11;101346.34;;;20.28;49.95
61337;BME280;47212;41.326;2.104;2023-05-19T13:49:13;101351.97;;;20.23;50.74
61337;BME280;47212;41.326;2.104;2023-05-19T13:54:16;101363.16;;;20.18;51.96
61337;BME280;47212;41.326;2.104;2023-05-19T13:59:18;101350.09;;;20.10;53.25
61337;BME280;47212;41.326;2.104;2023-05-19T14:04:22;101346.81;;;20.08;54.69
61337;BME280;47212;41.326;2.104;2023-05-19T14:09:25;101340.75;;;20.20;55.60
61337;BME280;47212;41.326;2.104;2023-05-19T14:14:33;101333.13;;;20.39;55.43
61337;BME280;47212;41.326;2.104;2023-05-19T14:22:58;101327.78;;;20.43;54.69
61337;BME280;47212;41.326;2.104;2023-05-19T14:28:00;101340.28;;;20.40;54.45
61337;BME280;47212;41.326;2.104;2023-05-19T14:33:03;101330.25;;;20.30;54.27
61337;BME280;47212;41.326;2.104;2023-05-19T14:38:05;101335.91;;;20.25;53.04
61337;BME280;47212;41.326;2.104;2023-05-19T14:43:07;101330.63;;;20.15;52.33
61337;BME280;47212;41.326;2.104;2023-05-19T14:48:09;101325.75;;;19.98;52.78
61337;BME280;47212;41.326;2.104;2023-05-19T14:53:13;101316.97;;;19.96;52.87
61337;BME280;47212;41.326;2.104;2023-05-19T14:58:15;101310.63;;;19.96;51.69
61337;BME280;47212;41.326;2.104;2023-05-19T15:03:29;101306.72;;;19.97;51.33
61337;BME280;47212;41.326;2.104;2023-05-19T15:08:31;101297.94;;;19.95;51.33
61337;BME280;47212;41.326;2.104;2023-05-19T15:13:34;101289.09;;;19.93;52.11
61337;BME280;47212;41.326;2.104;2023-05-19T15:18:36;101285.84;;;19.91;52.16
61337;BME280;47212;41.326;2.104;2023-05-19T15:23:38;101290.25;;;19.92;52.13
61337;BME280;47212;41.326;2.104;2023-05-19T15:28:41;101273.97;;;19.90;51.78
61337;BME280;47212;41.326;2.104;2023-05-19T15:33:43;101276.22;;;19.88;51.56
61337;BME280;47212;41.326;2.104;2023-05-19T15:38:45;101269.38;;;19.86;51.44
61337;BME280;47212;41.326;2.104;2023-05-19T15:43:47;101280.56;;;19.81;51.50
61337;BME280;47212;41.326;2.104;2023-05-19T15:48:50;101266.03;;;19.75;51.38
61337;BME280;47212;41.326;2.104;2023-05-19T15:53:55;101263.19;;;19.66;51.13
61337;BME280;47212;41.326;2.104;2023-05-19T15:58:58;101272.22;;;19.58;50.96
61337;BME280;47212;41.326;2.104;2023-05-19T16:04:01;101267.09;;;19.52;51.27
61337;BME280;47212;41.326;2.104;2023-05-19T16:09:06;101260.25;;;19.49;51.23
61337;BME280;47212;41.326;2.104;2023-05-19T16:14:08;101271.59;;;19.48;51.28
61337;BME280;47212;41.326;2.104;2023-05-19T16:19:10;101279.56;;;19.49;51.51
61337;BME280;47212;41.326;2.104;2023-05-19T16:24:12;101264.34;;;19.38;52.17
61337;BME280;47212;41.326;2.104;2023-05-19T16:29:15;101280.00;;;19.29;52.63
61337;BME280;47212;41.326;2.104;2023-05-19T16:34:17;101276.94;;;19.17;53.97
61337;BME280;47212;41.326;2.104;2023-05-19T16:39:19;101280.63;;;19.12;53.90
61337;BME280;47212;41.326;2.104;2023-05-19T16:44:21;101276.44;;;19.15;53.96
61337;BME280;47212;41.326;2.104;2023-05-19T16:49:25;101281.00;;;19.05;54.73
61337;BME280;47212;41.326;2.104;2023-05-19T16:54:27;101288.44;;;18.91;55.64
61337;BME280;47212;41.326;2.104;2023-05-19T16:59:29;101293.03;;;18.82;57.36
61337;BME280;47212;41.326;2.104;2023-05-19T17:04:32;101299.66;;;18.81;58.36
61337;BME280;47212;41.326;2.104;2023-05-19T17:09:34;101297.13;;;18.85;59.22
61337;BME280;47212;41.326;2.104;2023-05-19T17:14:37;101297.34;;;18.88;59.83
61337;BME280;47212;41.326;2.104;2023-05-19T17:19:39;101291.00;;;18.88;59.94
61337;BME280;47212;41.326;2.104;2023-05-19T17:24:41;101293.03;;;18.82;59.34
61337;BME280;47212;41.326;2.104;2023-05-19T17:29:43;101295.28;;;18.80;59.66
61337;BME280;47212;41.326;2.104;2023-05-19T17:34:45;101304.38;;;18.81;59.75
61337;BME280;47212;41.326;2.104;2023-05-19T17:39:48;101292.81;;;18.78;60.43
61337;BME280;47212;41.326;2.104;2023-05-19T17:44:50;101296.09;;;18.81;61.14
61337;BME280;47212;41.326;2.104;2023-05-19T17:49:52;101303.56;;;18.80;62.41
61337;BME280;47212;41.326;2.104;2023-05-19T17:54:55;101303.03;;;18.78;62.92
61337;BME280;47212;41.326;2.104;2023-05-19T17:59:58;101311.91;;;18.75;63.82
61337;BME280;47212;41.326;2.104;2023-05-19T18:05:01;101324.16;;;18.69;63.47
61337;BME280;47212;41.326;2.104;2023-05-19T18:10:05;101328.34;;;18.66;64.30
61337;BME280;47212;41.326;2.104;2023-05-19T18:15:07;101329.47;;;18.65;64.46
61337;BME280;47212;41.326;2.104;2023-05-19T18:20:10;101332.81;;;18.62;64.63
61337;BME280;47212;41.326;2.104;2023-05-19T18:25:12;101337.28;;;18.58;65.43
61337;BME280;47212;41.326;2.104;2023-05-19T18:30:15;101335.94;;;18.56;66.42
61337;BME280;47212;41.326;2.104;2023-05-19T18:35:17;101346.53;;;18.49;67.66
61337;BME280;47212;41.326;2.104;2023-05-19T18:40:21;101354.06;;;18.43;68.26
61337;BME280;47212;41.326;2.104;2023-05-19T18:45:23;101354.66;;;18.40;68.78
61337;BME280;47212;41.326;2.104;2023-05-19T18:50:26;101355.56;;;18.35;69.19
61337;BME280;47212;41.326;2.104;2023-05-19T18:55:28;101358.94;;;18.32;69.17
61337;BME280;47212;41.326;2.104;2023-05-19T19:00:30;101361.97;;;18.31;69.17
61337;BME280;47212;41.326;2.104;2023-05-19T19:05:33;101370.25;;;18.31;69.37
61337;BME280;47212;41.326;2.104;2023-05-19T19:10:38;101373.31;;;18.29;69.23
61337;BME280;47212;41.326;2.104;2023-05-19T19:15:41;101384.63;;;18.28;69.28
61337;BME280;47212;41.326;2.104;2023-05-19T19:23:01;101375.63;;;18.22;68.86
61337;BME280;47212;41.326;2.104;2023-05-19T19:28:07;101382.00;;;18.18;69.27
61337;BME280;47212;41.326;2.104;2023-05-19T19:33:09;101381.16;;;18.17;69.25
61337;BME280;47212;41.326;2.104;2023-05-19T19:38:12;101391.66;;;18.15;69.75
61337;BME280;47212;41.326;2.104;2023-05-19T19:43:14;101398.59;;;18.12;70.19
61337;BME280;47212;41.326;2.104;2023-05-19T19:48:16;101398.28;;;18.14;69.79
61337;BME280;47212;41.326;2.104;2023-05-19T19:53:18;101409.31;;;18.14;68.51
61337;BME280;47212;41.326;2.104;2023-05-19T19:58:21;101418.09;;;18.16;66.58
61337;BME280;47212;41.326;2.104;2023-05-19T20:03:23;101433.22;;;18.19;65.09
61337;BME280;47212;41.326;2.104;2023-05-19T20:08:26;101435.13;;;18.23;64.45
61337;BME280;47212;41.326;2.104;2023-05-19T20:13:31;101425.75;;;18.24;64.78
61337;BME280;47212;41.326;2.104;2023-05-19T20:18:33;101431.28;;;18.19;64.81
61337;BME280;47212;41.326;2.104;2023-05-19T20:23:38;101435.22;;;18.13;64.73
61337;BME280;47212;41.326;2.104;2023-05-19T20:28:45;101425.91;;;18.09;65.63
61337;BME280;47212;41.326;2.104;2023-05-19T20:33:50;101431.66;;;18.12;67.36
61337;BME280;47212;41.326;2.104;2023-05-19T20:38:53;101440.28;;;18.06;68.92
61337;BME280;47212;41.326;2.104;2023-05-19T20:43:55;101454.47;;;17.94;70.06
61337;BME280;47212;41.326;2.104;2023-05-19T20:48:58;101448.88;;;17.80;70.38
61337;BME280;47212;41.326;2.104;2023-05-19T20:54:00;101467.16;;;17.71;70.86
61337;BME280;47212;41.326;2.104;2023-05-19T20:59:04;101466.13;;;17.62;71.53
61337;BME280;47212;41.326;2.104;2023-05-19T21:04:06;101470.91;;;17.51;71.83
61337;BME280;47212;41.326;2.104;2023-05-19T21:09:09;101453.38;;;17.42;72.50
61337;BME280;47212;41.326;2.104;2023-05-19T21:14:11;101448.78;;;17.33;73.70
61337;BME280;47212;41.326;2.104;2023-05-19T21:19:14;101436.47;;;17.25;73.86
61337;BME280;47212;41.326;2.104;2023-05-19T21:24:16;101427.50;;;17.14;74.32
61337;BME280;47212;41.326;2.104;2023-05-19T21:29:18;101439.66;;;17.08;74.81
61337;BME280;47212;41.326;2.104;2023-05-19T21:34:21;101430.06;;;17.06;75.61
61337;BME280;47212;41.326;2.104;2023-05-19T21:39:24;101416.06;;;17.02;76.20
61337;BME280;47212;41.326;2.104;2023-05-19T21:44:26;101416.09;;;16.97;74.95
61337;BME280;47212;41.326;2.104;2023-05-19T21:49:31;101417.22;;;16.96;75.82
61337;BME280;47212;41.326;2.104;2023-05-19T21:54:33;101426.56;;;16.95;75.43
61337;BME280;47212;41.326;2.104;2023-05-19T21:59:48;101408.44;;;16.94;75.47
61337;BME280;47212;41.326;2.104;2023-05-19T22:04:53;101407.03;;;16.97;74.96
61337;BME280;47212;41.326;2.104;2023-05-19T22:09:55;101394.16;;;16.92;74.69
61337;BME280;47212;41.326;2.104;2023-05-19T22:15:04;101386.47;;;16.89;74.63
61337;BME280;47212;41.326;2.104;2023-05-19T22:20:07;101378.81;;;16.86;74.38
61337;BME280;47212;41.326;2.104;2023-05-19T22:25:10;101390.38;;;16.83;75.01
61337;BME280;47212;41.326;2.104;2023-05-19T22:30:12;101395.34;;;16.81;75.04
61337;BME280;47212;41.326;2.104;2023-05-19T22:35:14;101398.97;;;16.76;74.96
61337;BME280;47212;41.326;2.104;2023-05-19T22:40:17;101405.56;;;16.75;75.25
61337;BME280;47212;41.326;2.104;2023-05-19T22:45:20;101405.81;;;16.79;75.46
61337;BME280;47212;41.326;2.104;2023-05-19T22:50:23;101403.59;;;16.81;76.48
61337;BME280;47212;41.326;2.104;2023-05-19T22:55:25;101403.34;;;16.77;76.89
61337;BME280;47212;41.326;2.104;2023-05-19T23:00:31;101397.63;;;16.74;76.13
61337;BME280;47212;41.326;2.104;2023-05-19T23:05:36;101389.41;;;16.69;76.32
61337;BME280;47212;41.326;2.104;2023-05-19T23:10:41;101388.31;;;16.65;76.85
61337;BME280;47212;41.326;2.104;2023-05-19T23:15:42;101382.28;;;16.63;79.29
61337;BME280;47212;41.326;2.104;2023-05-19T23:22:50;101377.34;;;16.60;76.52
61337;BME280;47212;41.326;2.104;2023-05-19T23:27:53;101372.16;;;16.58;76.37
61337;BME280;47212;41.326;2.104;2023-05-19T23:32:56;101368.00;;;16.61;76.95
61337;BME280;47212;41.326;2.104;2023-05-19T23:37:59;101347.94;;;16.60;77.86
61337;BME280;47212;41.326;2.104;2023-05-19T23:43:04;101345.50;;;16.59;77.85
61337;BME280;47212;41.326;2.104;2023-05-19T23:48:10;101349.91;;;16.54;78.43
61337;BME280;47212;41.326;2.104;2023-05-19T23:53:12;101343.34;;;16.50;77.63
61337;BME280;47212;41.326;2.104;2023-05-19T23:58:14;101337.34;;;16.43;77.88
